Time;durP1;ratioP1;P1;durP2;ratioP2;P2;SDS_P1;SDS_P2;PMS_P1;PMS_P2;Temp;Humidity;BMP_temperature;BMP_pressure;BME280_temperature;BME280_humidity;BME280_pressure;Samples;Min_cycle;Max_cycle;Signal;HPM_P1;HPM_P2
2022/10/30 00:00:38;;;;;;;0.50;0.50;;;15.50;99.90;;;;;;4963317;28;21163;-86
2022/10/30 00:03:04;;;;;;;0.50;0.50;;;15.40;99.90;;;;;;4967599;28;20143;-85
2022/10/30 00:05:30;;;;;;;0.50;0.50;;;15.50;99.90;;;;;;4960954;28;20248;-86
2022/10/30 00:07:57;;;;;;;0.50;0.50;;;15.50;99.90;;;;;;4969026;28;21255;-87
2022/10/30 00:10:24;;;;;;;0.50;0.50;;;15.40;99.90;;;;;;4961524;28;20049;-86
2022/10/30 00:12:50;;;;;;;0.50;0.50;;;15.40;99.90;;;;;;4937586;28;20135;-86
2022/10/30 00:15:16;;;;;;;0.50;0.50;;;15.40;99.90;;;;;;4968748;28;20033;-86
2022/10/30 00:17:42;;;;;;;0.50;0.50;;;15.40;99.90;;;;;;4954090;28;20373;-85
2022/10/30 00:20:08;;;;;;;0.50;0.50;;;15.40;99.90;;;;;;4965261;28;20471;-86
2022/10/30 00:22:37;;;;;;;0.50;0.50;;;15.40;99.90;;;;;;4965519;28;20299;-86
2022/10/30 00:25:04;;;;;;;0.43;0.43;;;15.30;99.90;;;;;;4971380;28;20043;-85
2022/10/30 00:27:30;;;;;;;0.50;0.50;;;15.30;99.90;;;;;;4982780;28;20051;-90
2022/10/30 00:29:56;;;;;;;0.50;0.50;;;15.20;99.90;;;;;;4954674;28;20059;-85
2022/10/30 00:32:22;;;;;;;0.50;0.50;;;15.40;99.90;;;;;;4961863;28;20040;-85
2022/10/30 00:34:48;;;;;;;0.50;0.50;;;15.40;99.90;;;;;;4967101;28;20428;-86
2022/10/30 00:37:13;;;;;;;0.50;0.50;;;15.30;99.90;;;;;;4962740;28;20066;-86
2022/10/30 00:39:39;;;;;;;0.50;0.50;;;15.20;99.90;;;;;;4948679;28;20083;-86
2022/10/30 00:42:05;;;;;;;0.50;0.50;;;15.20;99.90;;;;;;4971374;28;20247;-85
2022/10/30 00:44:39;;;;;;;0.50;0.50;;;15.10;99.90;;;;;;4971598;28;20486;-86
2022/10/30 00:47:11;;;;;;;0.50;0.50;;;15.10;99.90;;;;;;4978297;28;20052;-85
2022/10/30 00:49:43;;;;;;;0.50;0.50;;;15.10;99.90;;;;;;4972261;28;21157;-85
2022/10/30 00:52:10;;;;;;;0.50;0.50;;;15.00;99.90;;;;;;4950649;28;20047;-87
2022/10/30 00:54:36;;;;;;;0.50;0.50;;;15.00;99.90;;;;;;4963509;28;20036;-86
2022/10/30 00:57:05;;;;;;;0.50;0.50;;;14.90;99.90;;;;;;4968110;28;20774;-85
2022/10/30 00:59:34;;;;;;;0.50;0.50;;;14.90;99.90;;;;;;4971068;28;20464;-86
2022/10/30 01:02:04;;;;;;;0.50;0.50;;;14.90;99.90;;;;;;4960801;28;20625;-85
2022/10/30 01:04:33;;;;;;;0.50;0.50;;;14.90;99.90;;;;;;4967431;28;20056;-86
2022/10/30 01:07:06;;;;;;;0.50;0.50;;;14.80;99.90;;;;;;4954548;28;20690;-86
2022/10/30 01:09:32;;;;;;;0.50;0.50;;;14.80;99.90;;;;;;4969347;28;20929;-87
2022/10/30 01:11:58;;;;;;;0.50;0.50;;;14.80;99.90;;;;;;4935919;28;20536;-87
2022/10/30 01:14:24;;;;;;;0.50;0.50;;;14.70;99.90;;;;;;4956549;28;20040;-86
2022/10/30 01:17:08;;;;;;;0.50;0.50;;;14.70;99.90;;;;;;4938141;28;20054;-87
2022/10/30 01:19:47;;;;;;;;;;;14.70;99.90;;;;;;4982705;28;20044;-86
2022/10/30 01:22:31;;;;;;;0.50;0.50;;;14.70;99.90;;;;;;4977412;28;19924;-86
2022/10/30 01:25:32;;;;;;;0.50;0.50;;;14.70;99.90;;;;;;4964205;28;20051;-87
2022/10/30 01:28:16;;;;;;;0.50;0.50;;;14.60;99.90;;;;;;4960915;28;20551;-85
2022/10/30 01:31:26;;;;;;;0.50;0.50;;;14.60;99.90;;;;;;4948484;28;20491;-87
2022/10/30 01:33:56;;;;;;;0.50;0.50;;;14.60;99.90;;;;;;4980998;28;21039;-89
2022/10/30 01:36:52;;;;;;;0.50;0.50;;;14.60;99.90;;;;;;4981538;28;20072;-88
2022/10/30 01:39:25;;;;;;;0.50;0.50;;;14.60;99.90;;;;;;4967868;28;20869;-86
2022/10/30 01:41:52;;;;;;;0.50;0.50;;;14.50;99.90;;;;;;4960456;28;20044;-88
2022/10/30 01:44:26;;;;;;;0.50;0.50;;;14.60;99.90;;;;;;4967283;28;20040;-87
2022/10/30 01:47:10;;;;;;;;;;;14.60;99.90;;;;;;4966777;28;20102;-88
2022/10/30 01:50:02;;;;;;;0.50;0.50;;;14.50;99.90;;;;;;4970683;28;19924;-87
2022/10/30 01:52:42;;;;;;;0.50;0.50;;;14.50;99.90;;;;;;4967707;28;20813;-85
2022/10/30 01:55:36;;;;;;;0.50;0.50;;;14.60;99.90;;;;;;4963787;28;20550;-87
2022/10/30 01:58:21;;;;;;;0.50;0.50;;;14.60;99.90;;;;;;4978405;28;20552;-85
2022/10/30 02:00:53;;;;;;;0.50;0.50;;;14.60;99.90;;;;;;4984257;28;20420;-86
2022/10/30 02:03:19;;;;;;;0.50;0.50;;;14.60;99.90;;;;;;4976736;28;20052;-88
2022/10/30 02:05:50;;;;;;;0.50;0.50;;;14.60;99.90;;;;;;4977103;28;20059;-88
2022/10/30 02:08:16;;;;;;;0.50;0.50;;;14.60;99.90;;;;;;4973496;28;20105;-88
2022/10/30 02:10:45;;;;;;;0.50;0.50;;;14.70;99.90;;;;;;4978734;28;20048;-85
2022/10/30 02:13:10;;;;;;;0.50;0.50;;;14.70;99.90;;;;;;4957061;28;20048;-87
2022/10/30 02:15:37;;;;;;;0.50;0.50;;;14.60;99.90;;;;;;4994244;28;20091;-86
2022/10/30 02:18:03;;;;;;;0.50;0.50;;;14.50;99.90;;;;;;4973146;28;20437;-87
2022/10/30 02:20:29;;;;;;;0.50;0.50;;;14.50;99.90;;;;;;4978611;28;20090;-86
2022/10/30 02:22:55;;;;;;;0.50;0.50;;;14.50;99.90;;;;;;4979844;28;20041;-86
2022/10/30 02:25:21;;;;;;;0.50;0.50;;;14.40;99.90;;;;;;4971131;28;20040;-85
2022/10/30 02:27:50;;;;;;;0.50;0.50;;;14.50;99.90;;;;;;4977692;28;20650;-88
2022/10/30 02:30:16;;;;;;;0.50;0.50;;;14.60;99.90;;;;;;4965641;28;20044;-86
2022/10/30 02:32:42;;;;;;;0.50;0.50;;;14.50;99.90;;;;;;4953900;28;20474;-86
2022/10/30 02:35:08;;;;;;;0.50;0.50;;;14.50;99.90;;;;;;4968530;28;21124;-86
2022/10/30 02:37:38;;;;;;;0.50;0.50;;;14.50;99.90;;;;;;4951708;28;20184;-87
2022/10/30 02:40:07;;;;;;;0.50;0.50;;;14.40;99.90;;;;;;4973620;28;20056;-86
2022/10/30 02:42:34;;;;;;;0.50;0.50;;;14.40;99.90;;;;;;4957910;28;20048;-86
2022/10/30 02:44:59;;;;;;;0.50;0.50;;;14.30;99.90;;;;;;4959684;28;20044;-86
2022/10/30 02:47:27;;;;;;;0.50;0.50;;;14.20;99.90;;;;;;4975186;28;20093;-86
2022/10/30 02:49:52;;;;;;;0.50;0.50;;;14.30;99.90;;;;;;4978443;28;20521;-85
2022/10/30 02:52:18;;;;;;;0.50;0.50;;;14.20;99.90;;;;;;4971523;28;20048;-87
2022/10/30 02:54:44;;;;;;;0.50;0.50;;;14.20;99.90;;;;;;4964679;28;20039;-87
2022/10/30 02:57:10;;;;;;;0.50;0.50;;;14.20;99.90;;;;;;4948077;28;20051;-87
2022/10/30 02:59:35;;;;;;;0.50;0.50;;;14.20;99.90;;;;;;4951672;28;20052;-88
2022/10/30 03:02:04;;;;;;;0.50;0.50;;;14.20;99.90;;;;;;4968959;28;20052;-86
2022/10/30 03:04:29;;;;;;;0.50;0.50;;;14.00;99.90;;;;;;4975050;28;20099;-86
2022/10/30 03:06:55;;;;;;;0.50;0.50;;;14.10;99.90;;;;;;4939437;28;20048;-86
2022/10/30 03:09:21;;;;;;;0.50;0.50;;;14.00;99.90;;;;;;4960575;28;20056;-86
2022/10/30 03:11:47;;;;;;;0.50;0.50;;;14.00;99.90;;;;;;5018084;28;20074;-86
2022/10/30 03:14:13;;;;;;;0.50;0.50;;;14.00;99.90;;;;;;4941834;28;20041;-86
2022/10/30 03:16:39;;;;;;;0.50;0.50;;;14.00;99.90;;;;;;4972322;28;20135;-87
2022/10/30 03:19:04;;;;;;;0.50;0.50;;;14.00;99.90;;;;;;4971422;28;20134;-86
2022/10/30 03:21:30;;;;;;;0.50;0.50;;;13.90;99.90;;;;;;4973045;28;20047;-86
2022/10/30 03:23:56;;;;;;;0.50;0.50;;;13.80;99.90;;;;;;4967865;28;20577;-85
2022/10/30 03:26:22;;;;;;;0.50;0.50;;;13.80;99.90;;;;;;4976529;28;20166;-85
2022/10/30 03:28:48;;;;;;;0.50;0.50;;;13.80;99.90;;;;;;4973496;28;20145;-87
2022/10/30 03:31:16;;;;;;;0.50;0.50;;;13.80;99.90;;;;;;4977575;28;20159;-86
2022/10/30 03:33:42;;;;;;;0.50;0.50;;;13.90;99.90;;;;;;4981319;28;20048;-85
2022/10/30 03:36:10;;;;;;;0.50;0.50;;;13.90;99.90;;;;;;4984091;28;20058;-86
2022/10/30 03:38:37;;;;;;;0.50;0.50;;;13.90;99.90;;;;;;4961292;28;20556;-85
2022/10/30 03:41:03;;;;;;;0.50;0.50;;;13.80;99.90;;;;;;4974084;28;20324;-85
2022/10/30 03:43:29;;;;;;;0.50;0.50;;;13.70;99.90;;;;;;4958414;28;20437;-86
2022/10/30 03:45:56;;;;;;;0.50;0.50;;;13.60;99.90;;;;;;4994267;28;20538;-86
2022/10/30 03:48:26;;;;;;;0.50;0.50;;;13.70;99.90;;;;;;4970351;28;20056;-86
2022/10/30 03:50:54;;;;;;;0.50;0.50;;;13.70;99.90;;;;;;4972669;28;20577;-86
2022/10/30 03:53:21;;;;;;;0.50;0.50;;;13.60;99.90;;;;;;4985392;28;20059;-85
2022/10/30 03:55:47;;;;;;;0.50;0.50;;;13.70;99.90;;;;;;4973376;28;20455;-86
2022/10/30 03:58:14;;;;;;;0.50;0.50;;;13.60;99.90;;;;;;4954111;28;20044;-84
2022/10/30 04:00:40;;;;;;;0.50;0.50;;;13.60;99.90;;;;;;4945026;28;20053;-86
2022/10/30 04:03:07;;;;;;;0.50;0.50;;;13.60;99.90;;;;;;4978480;28;20456;-86
2022/10/30 04:05:33;;;;;;;0.50;0.50;;;13.60;99.90;;;;;;4966233;28;20060;-85
2022/10/30 04:08:01;;;;;;;0.50;0.50;;;13.60;99.90;;;;;;4971217;28;20055;-85
2022/10/30 04:10:28;;;;;;;0.50;0.50;;;13.60;99.90;;;;;;4973728;28;20064;-85
2022/10/30 04:13:05;;;;;;;0.57;0.57;;;13.50;99.90;;;;;;4967974;28;20138;-86
2022/10/30 04:15:32;;;;;;;0.50;0.50;;;13.70;99.90;;;;;;4962795;28;20044;-86
2022/10/30 04:17:58;;;;;;;0.50;0.50;;;13.70;99.90;;;;;;4949713;28;20049;-86
2022/10/30 04:20:25;;;;;;;0.50;0.50;;;13.70;99.90;;;;;;4970880;28;20092;-86
2022/10/30 04:22:58;;;;;;;0.50;0.50;;;13.70;99.90;;;;;;4974414;28;20047;-87
2022/10/30 04:25:25;;;;;;;0.50;0.50;;;13.70;99.90;;;;;;4977892;28;20044;-86
2022/10/30 04:27:54;;;;;;;0.50;0.50;;;13.80;99.90;;;;;;4966032;28;20244;-86
2022/10/30 04:30:21;;;;;;;0.50;0.50;;;13.80;99.90;;;;;;4972165;28;20409;-86
2022/10/30 04:32:52;;;;;;;0.50;0.50;;;13.80;99.90;;;;;;4951315;28;20059;-87
2022/10/30 04:35:20;;;;;;;0.50;0.50;;;13.80;99.90;;;;;;4967883;28;20659;-86
2022/10/30 04:37:56;;;;;;;0.50;0.50;;;13.80;99.90;;;;;;4968394;28;20047;-86
2022/10/30 04:40:23;;;;;;;0.50;0.50;;;13.80;99.90;;;;;;4972194;28;20461;-85
2022/10/30 04:42:50;;;;;;;0.50;0.50;;;13.70;99.90;;;;;;4973832;28;20127;-86
2022/10/30 04:45:16;;;;;;;0.50;0.50;;;13.60;99.90;;;;;;4965463;28;20159;-86
2022/10/30 04:47:42;;;;;;;0.50;0.50;;;13.60;99.90;;;;;;4962913;28;20044;-86
2022/10/30 04:50:09;;;;;;;0.50;0.50;;;13.60;99.90;;;;;;4936717;28;20591;-85
2022/10/30 04:52:34;;;;;;;0.50;0.50;;;13.60;99.90;;;;;;4969922;28;20516;-87
2022/10/30 04:55:01;;;;;;;0.50;0.50;;;13.60;99.90;;;;;;4966498;28;20040;-86
2022/10/30 04:57:26;;;;;;;0.50;0.50;;;13.50;99.90;;;;;;4969831;28;20048;-87
2022/10/30 04:59:52;;;;;;;0.50;0.50;;;13.50;99.90;;;;;;4968876;28;20385;-86
2022/10/30 05:02:18;;;;;;;0.45;0.45;;;13.40;99.90;;;;;;4972369;28;20058;-85
2022/10/30 05:04:45;;;;;;;0.50;0.50;;;13.40;99.90;;;;;;4970295;28;20575;-87
2022/10/30 05:07:11;;;;;;;0.50;0.50;;;13.40;99.90;;;;;;4982987;28;20048;-86
2022/10/30 05:09:37;;;;;;;0.50;0.50;;;13.40;99.90;;;;;;4974083;28;20087;-87
2022/10/30 05:12:03;;;;;;;0.50;0.50;;;13.30;99.90;;;;;;4953269;28;20052;-86
2022/10/30 05:14:31;;;;;;;0.43;0.43;;;13.30;99.90;;;;;;4971202;28;20040;-87
2022/10/30 05:16:57;;;;;;;0.50;0.50;;;13.20;99.90;;;;;;4973673;28;20126;-87
2022/10/30 05:19:23;;;;;;;0.50;0.50;;;13.20;99.90;;;;;;4968361;28;20049;-85
2022/10/30 05:21:49;;;;;;;0.50;0.50;;;13.20;99.90;;;;;;4967099;28;20062;-86
2022/10/30 05:24:14;;;;;;;0.50;0.50;;;13.10;99.90;;;;;;4992215;28;20861;-86
2022/10/30 05:26:40;;;;;;;0.50;0.50;;;13.00;99.90;;;;;;4956084;28;20473;-86
2022/10/30 05:29:06;;;;;;;0.50;0.50;;;13.00;99.90;;;;;;4960015;28;20089;-86
2022/10/30 05:31:32;;;;;;;0.50;0.50;;;13.00;99.90;;;;;;4970354;28;20498;-85
2022/10/30 05:33:57;;;;;;;0.50;0.50;;;12.90;99.90;;;;;;4961826;28;20475;-86
2022/10/30 05:36:23;;;;;;;0.50;0.50;;;12.90;99.90;;;;;;4983142;28;20040;-85
2022/10/30 05:38:49;;;;;;;0.50;0.50;;;13.00;99.90;;;;;;4978988;28;20491;-85
2022/10/30 05:41:15;;;;;;;0.50;0.50;;;13.00;99.90;;;;;;4985680;28;20129;-86
2022/10/30 05:43:41;;;;;;;0.50;0.50;;;13.10;99.90;;;;;;4973035;28;20083;-87
2022/10/30 05:46:07;;;;;;;0.50;0.50;;;13.10;99.90;;;;;;4968348;28;20055;-86
2022/10/30 05:48:33;;;;;;;0.60;0.60;;;13.10;99.90;;;;;;4952110;28;20441;-87
2022/10/30 05:50:59;;;;;;;0.50;0.50;;;13.10;99.90;;;;;;4934565;28;20083;-88
2022/10/30 05:53:25;;;;;;;0.50;0.50;;;13.20;99.90;;;;;;4958258;28;20076;-86
2022/10/30 05:55:50;;;;;;;0.50;0.50;;;13.20;99.90;;;;;;4958663;28;20036;-85
2022/10/30 05:58:16;;;;;;;0.50;0.50;;;13.20;99.90;;;;;;4964002;28;20044;-86
2022/10/30 06:00:43;;;;;;;0.50;0.50;;;13.10;99.90;;;;;;4969597;28;20040;-86
2022/10/30 06:03:11;;;;;;;0.50;0.50;;;13.00;99.90;;;;;;4975495;28;20171;-86
2022/10/30 06:05:37;;;;;;;0.50;0.50;;;13.00;99.90;;;;;;4962333;28;20815;-86
2022/10/30 06:08:05;;;;;;;0.50;0.50;;;13.00;99.90;;;;;;4976729;28;20081;-86
2022/10/30 06:10:31;;;;;;;0.50;0.50;;;13.00;99.90;;;;;;4973299;28;20067;-86
2022/10/30 06:12:59;;;;;;;0.57;0.57;;;12.90;99.90;;;;;;4975656;28;20060;-86
2022/10/30 06:15:27;;;;;;;0.50;0.50;;;12.90;99.90;;;;;;4960068;28;20227;-86
2022/10/30 06:17:53;;;;;;;0.50;0.50;;;13.00;99.90;;;;;;4977921;28;20785;-86
2022/10/30 06:20:21;;;;;;;0.50;0.50;;;12.90;99.90;;;;;;4982730;28;20070;-86
2022/10/30 06:22:59;;;;;;;0.50;0.50;;;12.90;99.90;;;;;;4979358;28;20122;-86
2022/10/30 06:25:27;;;;;;;0.50;0.50;;;12.90;99.90;;;;;;4992367;28;20105;-87
2022/10/30 06:27:53;;;;;;;0.50;0.50;;;12.80;99.90;;;;;;4967889;28;20056;-87
2022/10/30 06:30:20;;;;;;;0.50;0.50;;;12.90;99.90;;;;;;4950455;28;20067;-86
2022/10/30 06:32:46;;;;;;;0.52;0.52;;;12.80;99.90;;;;;;4976356;28;21004;-86
2022/10/30 06:35:12;;;;;;;0.50;0.50;;;12.90;99.90;;;;;;4981731;28;20043;-86
2022/10/30 06:37:43;;;;;;;0.60;0.60;;;12.90;99.90;;;;;;4977452;28;20572;-86
2022/10/30 06:40:09;;;;;;;0.50;0.50;;;12.90;99.90;;;;;;4952624;28;20059;-86
2022/10/30 06:42:45;;;;;;;0.50;0.50;;;12.80;99.90;;;;;;4979585;28;20436;-85
2022/10/30 06:45:12;;;;;;;0.50;0.50;;;12.80;99.90;;;;;;4986926;28;21114;-88
2022/10/30 06:47:38;;;;;;;0.50;0.50;;;12.80;99.90;;;;;;4976983;28;20836;-87
2022/10/30 06:50:05;;;;;;;0.50;0.50;;;12.80;99.90;;;;;;4976848;28;20113;-89
2022/10/30 06:52:31;;;;;;;0.50;0.50;;;12.90;99.90;;;;;;4981593;28;20048;-87
2022/10/30 06:54:57;;;;;;;0.50;0.50;;;13.00;99.90;;;;;;4974807;28;21081;-88
2022/10/30 06:57:23;;;;;;;0.50;0.50;;;13.10;99.90;;;;;;4937499;28;20054;-88
2022/10/30 06:59:52;;;;;;;0.50;0.50;;;13.20;99.90;;;;;;4979617;28;20048;-88
2022/10/30 07:02:18;;;;;;;0.50;0.50;;;13.20;99.90;;;;;;4972153;28;20113;-92
2022/10/30 07:04:44;;;;;;;0.50;0.50;;;13.20;99.90;;;;;;4996107;28;20066;-90
2022/10/30 07:07:11;;;;;;;0.50;0.50;;;13.20;99.90;;;;;;4962548;28;20637;-87
2022/10/30 07:09:37;;;;;;;0.50;0.50;;;13.30;99.90;;;;;;4959332;28;20056;-86
2022/10/30 07:12:03;;;;;;;0.50;0.50;;;13.30;99.90;;;;;;4983658;28;20142;-91
2022/10/30 07:14:29;;;;;;;0.50;0.50;;;13.30;99.90;;;;;;4960279;28;20045;-92
2022/10/30 07:16:54;;;;;;;0.50;0.50;;;13.40;99.90;;;;;;4954026;28;20091;-89
2022/10/30 07:19:21;;;;;;;0.55;0.55;;;13.50;99.90;;;;;;4958865;28;20446;-87
2022/10/30 07:21:47;;;;;;;0.50;0.50;;;13.70;99.90;;;;;;4974136;28;20278;-88
2022/10/30 07:24:13;;;;;;;0.50;0.50;;;13.80;99.90;;;;;;4970527;28;20900;-87
2022/10/30 07:26:39;;;;;;;0.50;0.50;;;13.80;99.90;;;;;;4973424;28;20060;-89
2022/10/30 07:29:05;;;;;;;0.50;0.50;;;13.90;99.90;;;;;;4979790;28;20035;-88
2022/10/30 07:31:31;;;;;;;0.50;0.50;;;14.00;99.90;;;;;;4978027;28;20049;-82
2022/10/30 07:33:57;;;;;;;0.50;0.50;;;14.00;99.90;;;;;;4986045;28;20833;-81
2022/10/30 07:36:23;;;;;;;0.50;0.50;;;14.20;99.90;;;;;;4979765;28;20063;-85
2022/10/30 07:38:49;;;;;;;0.50;0.50;;;14.30;99.90;;;;;;4976176;28;20448;-85
2022/10/30 07:41:17;;;;;;;0.50;0.50;;;14.40;99.90;;;;;;4977474;28;20779;-87
2022/10/30 07:43:43;;;;;;;0.50;0.50;;;14.40;99.90;;;;;;4958364;28;20556;-85
2022/10/30 07:46:09;;;;;;;0.50;0.50;;;14.50;99.90;;;;;;4974787;28;20044;-88
2022/10/30 07:48:35;;;;;;;0.50;0.50;;;14.70;99.90;;;;;;4975428;28;20094;-87
2022/10/30 07:51:01;;;;;;;0.50;0.50;;;14.80;99.90;;;;;;4972923;28;20229;-86
2022/10/30 07:53:27;;;;;;;0.50;0.50;;;14.90;99.90;;;;;;4969063;28;20045;-87
2022/10/30 07:55:53;;;;;;;0.50;0.50;;;15.00;99.90;;;;;;4956983;28;21374;-85
2022/10/30 07:58:18;;;;;;;0.50;0.50;;;15.20;99.90;;;;;;4973730;28;20565;-85
2022/10/30 08:00:44;;;;;;;0.50;0.50;;;15.30;99.90;;;;;;4967388;28;20052;-85
2022/10/30 08:03:11;;;;;;;0.50;0.50;;;15.40;99.90;;;;;;4965845;28;20437;-88
2022/10/30 08:05:37;;;;;;;0.50;0.50;;;15.40;99.90;;;;;;4973502;28;20450;-86
2022/10/30 08:08:03;;;;;;;0.50;0.50;;;15.50;99.90;;;;;;4952536;28;20048;-84
2022/10/30 08:10:29;;;;;;;0.50;0.50;;;15.70;99.90;;;;;;4983415;28;20079;-83
2022/10/30 08:12:55;;;;;;;0.50;0.50;;;15.80;99.90;;;;;;4969050;28;20500;-86
2022/10/30 08:15:22;;;;;;;0.47;0.47;;;15.90;99.90;;;;;;4972926;28;20048;-85
2022/10/30 08:17:49;;;;;;;0.50;0.50;;;15.90;99.90;;;;;;4969318;28;20550;-85
2022/10/30 08:20:18;;;;;;;0.50;0.50;;;15.90;99.90;;;;;;4978294;28;20050;-88
2022/10/30 08:22:52;;;;;;;0.50;0.50;;;16.10;99.90;;;;;;4974643;28;20052;-88
2022/10/30 08:25:23;;;;;;;0.50;0.50;;;16.20;99.90;;;;;;4974390;28;20308;-91
2022/10/30 08:28:00;;;;;;;0.50;0.50;;;16.30;99.90;;;;;;4980096;28;20075;-86
2022/10/30 08:30:28;;;;;;;0.50;0.50;;;16.40;99.90;;;;;;4939444;28;20048;-87
2022/10/30 08:32:57;;;;;;;0.50;0.50;;;16.40;99.90;;;;;;4970835;28;20346;-89
2022/10/30 08:35:23;;;;;;;0.50;0.50;;;16.40;99.90;;;;;;4955745;28;20663;-87
2022/10/30 08:37:51;;;;;;;0.50;0.50;;;16.40;99.90;;;;;;4942973;28;20528;-87
2022/10/30 08:40:17;;;;;;;0.50;0.50;;;16.60;99.90;;;;;;4935501;28;20060;-87
2022/10/30 08:42:52;;;;;;;0.40;0.40;;;16.70;99.90;;;;;;4944742;28;20088;-86
2022/10/30 08:45:20;;;;;;;0.50;0.50;;;16.90;99.90;;;;;;4964845;28;20852;-86
2022/10/30 08:47:46;;;;;;;0.40;0.40;;;16.80;99.90;;;;;;4947943;28;20048;-85
2022/10/30 08:50:13;;;;;;;0.50;0.50;;;16.80;99.90;;;;;;4955427;28;20155;-92
2022/10/30 08:52:38;;;;;;;0.50;0.50;;;16.90;99.90;;;;;;4921246;28;20049;-85
2022/10/30 08:55:05;;;;;;;0.40;0.40;;;16.90;99.90;;;;;;4962589;28;20489;-86
2022/10/30 08:57:36;;;;;;;0.40;0.40;;;17.00;99.90;;;;;;4952010;28;20048;-86
2022/10/30 09:00:03;;;;;;;0.40;0.40;;;17.10;99.90;;;;;;4971639;28;20944;-88
2022/10/30 09:02:28;;;;;;;0.45;0.45;;;17.20;99.90;;;;;;4972613;28;20068;-87
2022/10/30 09:04:54;;;;;;;0.50;0.50;;;17.20;99.90;;;;;;4973732;28;20121;-87
2022/10/30 09:07:20;;;;;;;0.40;0.40;;;17.20;99.90;;;;;;4970887;28;20055;-87
2022/10/30 09:09:46;;;;;;;0.50;0.50;;;17.10;99.90;;;;;;4962578;28;20467;-89
2022/10/30 09:12:11;;;;;;;0.40;0.40;;;17.00;99.90;;;;;;4975012;28;20507;-86
2022/10/30 09:14:37;;;;;;;0.50;0.50;;;17.20;99.90;;;;;;4972307;28;20375;-89
2022/10/30 09:17:03;;;;;;;0.50;0.50;;;17.30;99.90;;;;;;4948883;28;20044;-86
2022/10/30 09:19:29;;;;;;;0.40;0.40;;;17.30;99.90;;;;;;4928830;28;20134;-87
2022/10/30 09:21:55;;;;;;;0.50;0.50;;;17.30;99.90;;;;;;4949392;28;20060;-84
2022/10/30 09:24:20;;;;;;;0.40;0.40;;;17.40;99.90;;;;;;4955773;28;20049;-86
2022/10/30 09:26:46;;;;;;;0.50;0.50;;;17.40;99.90;;;;;;4960187;28;20403;-86
2022/10/30 09:29:12;;;;;;;0.50;0.50;;;17.40;99.90;;;;;;4963153;28;20054;-85
2022/10/30 09:31:38;;;;;;;0.40;0.40;;;17.50;99.90;;;;;;4958747;28;20621;-82
2022/10/30 09:34:06;;;;;;;0.50;0.50;;;17.60;99.90;;;;;;4962884;28;20062;-86
2022/10/30 09:36:32;;;;;;;0.50;0.50;;;17.70;99.90;;;;;;4951373;28;20045;-84
2022/10/30 09:38:58;;;;;;;0.50;0.50;;;17.60;99.90;;;;;;4966387;28;20083;-88
2022/10/30 09:41:55;;;;;;;0.50;0.50;;;17.70;99.90;;;;;;4960777;28;20510;-83
2022/10/30 09:44:48;;;;;;;0.43;0.43;;;17.80;99.90;;;;;;4963871;28;20040;-87
2022/10/30 09:47:13;;;;;;;0.50;0.50;;;17.90;99.90;;;;;;4952854;28;20625;-84
2022/10/30 09:49:42;;;;;;;0.50;0.50;;;18.00;99.90;;;;;;4957738;28;20049;-85
2022/10/30 09:52:37;;;;;;;0.50;0.50;;;18.20;99.90;;;;;;4971788;28;20780;-87
2022/10/30 09:55:29;;;;;;;0.40;0.40;;;18.40;99.90;;;;;;4970344;28;20536;-85
2022/10/30 09:58:10;;;;;;;0.40;0.40;;;18.50;99.90;;;;;;4956521;28;20726;-85
2022/10/30 10:00:42;;;;;;;0.40;0.40;;;18.60;99.90;;;;;;4962754;28;20533;-85
2022/10/30 10:03:25;;;;;;;0.50;0.50;;;18.80;99.90;;;;;;4977928;28;20356;-87
2022/10/30 10:05:55;;;;;;;0.40;0.40;;;18.60;99.90;;;;;;4975714;28;20066;-84
2022/10/30 10:08:49;;;;;;;0.40;0.40;;;18.70;99.90;;;;;;4991108;28;20540;-87
2022/10/30 10:11:34;;;;;;;;;;;18.60;99.90;;;;;;4958355;28;20084;-87
2022/10/30 10:14:13;;;;;;;0.43;0.43;;;18.80;99.90;;;;;;4962440;28;19931;-87
2022/10/30 10:16:41;;;;;;;0.40;0.40;;;18.80;99.90;;;;;;4967120;28;20569;-88
2022/10/30 10:19:12;;;;;;;0.40;0.40;;;18.80;99.90;;;;;;4958853;28;20048;-88
2022/10/30 10:21:57;;;;;;;0.40;0.40;;;18.80;99.90;;;;;;4979345;28;20052;-92
2022/10/30 10:24:37;;;;;;;0.40;0.40;;;18.80;99.90;;;;;;4971083;28;20079;-89
2022/10/30 10:27:18;;;;;;;0.40;0.40;;;18.70;99.90;;;;;;4965813;28;20572;-88
2022/10/30 10:29:56;;;;;;;0.40;0.40;;;18.70;99.90;;;;;;4990464;28;20055;-89
2022/10/30 10:32:27;;;;;;;0.40;0.40;;;18.70;99.90;;;;;;4979670;28;20052;-86
2022/10/30 10:35:09;;;;;;;0.40;0.40;;;18.90;99.90;;;;;;4978189;28;20045;-87
2022/10/30 10:38:03;;;;;;;0.40;0.40;;;19.00;99.90;;;;;;4972944;28;20521;-91
2022/10/30 10:41:06;;;;;;;0.40;0.40;;;19.30;99.90;;;;;;4955217;28;20047;-89
2022/10/30 10:43:41;;;;;;;0.40;0.40;;;19.30;99.90;;;;;;4954998;28;20080;-87
2022/10/30 10:46:22;;;;;;;0.40;0.40;;;19.50;99.90;;;;;;4955775;28;20376;-86
2022/10/30 10:49:09;;;;;;;0.40;0.40;;;19.60;99.90;;;;;;4943394;28;20076;-87
2022/10/30 10:51:39;;;;;;;0.40;0.40;;;19.70;99.90;;;;;;4956243;28;20426;-87
2022/10/30 10:54:41;;;;;;;0.40;0.40;;;20.00;99.90;;;;;;4963355;28;20052;-87
2022/10/30 10:57:09;;;;;;;0.40;0.40;;;20.00;99.90;;;;;;4969331;28;20084;-86
2022/10/30 10:59:40;;;;;;;0.40;0.40;;;20.00;99.90;;;;;;4967885;28;20048;-86
2022/10/30 11:02:34;;;;;;;0.40;0.40;;;19.90;99.90;;;;;;4956151;28;20069;-86
2022/10/30 11:05:27;;;;;;;0.40;0.40;;;20.00;99.90;;;;;;4940347;28;20518;-91
2022/10/30 11:07:58;;;;;;;0.40;0.40;;;20.40;99.90;;;;;;4930311;28;20127;-89
2022/10/30 11:10:25;;;;;;;0.40;0.40;;;20.50;99.90;;;;;;4949726;28;20652;-88
2022/10/30 11:12:51;;;;;;;0.45;0.45;;;20.70;99.90;;;;;;4966305;28;20540;-88
2022/10/30 11:15:35;;;;;;;0.40;0.40;;;20.40;99.90;;;;;;4962657;28;20057;-84
2022/10/30 11:18:04;;;;;;;0.40;0.40;;;20.60;99.90;;;;;;4978703;28;20049;-85
2022/10/30 11:20:43;;;;;;;0.40;0.40;;;20.70;99.90;;;;;;4966272;28;21102;-87
2022/10/30 11:23:32;;;;;;;0.40;0.40;;;21.00;99.90;;;;;;4964341;28;20048;-87
2022/10/30 11:25:58;;;;;;;0.30;0.30;;;20.90;99.90;;;;;;4960619;28;20052;-82
2022/10/30 11:28:35;;;;;;;0.40;0.40;;;21.00;99.90;;;;;;4977720;28;20041;-84
2022/10/30 11:31:36;;;;;;;0.40;0.40;;;21.20;99.90;;;;;;4979576;28;20817;-86
2022/10/30 11:34:33;;;;;;;0.30;0.30;;;21.20;99.90;;;;;;4966293;28;20148;-87
2022/10/30 11:36:59;;;;;;;0.40;0.40;;;21.30;99.90;;;;;;4967220;28;20135;-87
2022/10/30 11:39:27;;;;;;;0.30;0.30;;;21.50;99.90;;;;;;4952225;28;20051;-89
2022/10/30 11:41:56;;;;;;;0.40;0.40;;;21.60;99.90;;;;;;4953391;28;20445;-86
2022/10/30 11:44:26;;;;;;;0.30;0.30;;;21.80;99.90;;;;;;4950408;28;20131;-87
2022/10/30 11:46:53;;;;;;;0.35;0.35;;;21.90;99.90;;;;;;4953295;28;20083;-87
2022/10/30 11:49:26;;;;;;;0.40;0.40;;;22.00;99.90;;;;;;4963592;28;20083;-87
2022/10/30 11:51:52;;;;;;;0.40;0.40;;;22.00;99.90;;;;;;4975543;28;20084;-84
2022/10/30 11:54:21;;;;;;;0.38;0.38;;;22.00;99.90;;;;;;4954474;28;20068;-89
2022/10/30 11:56:52;;;;;;;0.30;0.30;;;21.90;99.90;;;;;;4953477;28;20053;-87
2022/10/30 11:59:21;;;;;;;0.40;0.40;;;21.90;99.90;;;;;;4945997;28;20053;-86
2022/10/30 12:02:19;;;;;;;0.30;0.30;;;22.00;99.90;;;;;;4942810;28;20052;-91
2022/10/30 12:04:44;;;;;;;0.40;0.40;;;22.10;99.90;;;;;;4947013;28;20044;-85
2022/10/30 12:07:18;;;;;;;0.30;0.30;;;22.10;99.90;;;;;;4973924;28;20368;-90
2022/10/30 12:09:46;;;;;;;0.30;0.30;;;22.20;99.90;;;;;;4931639;28;20162;-85
2022/10/30 12:12:21;;;;;;;0.40;0.40;;;22.10;99.90;;;;;;4960354;28;20044;-87
2022/10/30 12:14:47;;;;;;;0.30;0.30;;;22.00;99.90;;;;;;4962379;28;20040;-87
2022/10/30 12:17:17;;;;;;;0.32;0.32;;;22.30;99.90;;;;;;4954844;28;20129;-87
2022/10/30 12:19:48;;;;;;;0.35;0.35;;;22.30;99.90;;;;;;4965566;28;20574;-87
2022/10/30 12:22:27;;;;;;;0.40;0.40;;;22.10;99.90;;;;;;4970534;28;20045;-87
2022/10/30 12:24:52;;;;;;;0.40;0.40;;;21.90;99.90;;;;;;4981487;28;20378;-88
2022/10/30 12:27:18;;;;;;;0.38;0.38;;;22.10;99.90;;;;;;4954438;28;20052;-84
2022/10/30 12:30:14;;;;;;;0.40;0.40;;;22.00;99.90;;;;;;4968039;28;20056;-87
2022/10/30 12:32:56;;;;;;;0.40;0.40;;;21.80;99.90;;;;;;4949459;28;20057;-84
2022/10/30 12:36:06;;;;;;;0.40;0.40;;;21.90;99.90;;;;;;4967577;28;21264;-85
2022/10/30 12:38:46;;;;;;;0.40;0.40;;;21.80;99.90;;;;;;4933273;28;21265;-85
2022/10/30 12:41:17;;;;;;;0.32;0.32;;;21.50;99.90;;;;;;4983150;28;20040;-85
2022/10/30 12:43:51;;;;;;;0.40;0.40;;;21.50;99.90;;;;;;4964321;28;20048;-87
2022/10/30 12:46:41;;;;;;;0.40;0.40;;;21.30;99.90;;;;;;4961729;28;20035;-86
2022/10/30 12:49:29;;;;;;;0.40;0.40;;;21.50;99.90;;;;;;4971376;28;20059;-86
2022/10/30 12:52:06;;;;;;;0.40;0.40;;;21.50;99.90;;;;;;4956316;28;20072;-87
2022/10/30 12:54:44;;;;;;;0.40;0.40;;;21.80;99.90;;;;;;4954405;28;20474;-91
2022/10/30 12:57:29;;;;;;;0.40;0.40;;;21.90;99.90;;;;;;4969340;28;20052;-85
2022/10/30 13:00:14;;;;;;;0.40;0.40;;;22.10;99.90;;;;;;4966533;28;20465;-86
2022/10/30 13:02:50;;;;;;;0.40;0.40;;;22.30;99.90;;;;;;4969032;28;20141;-86
2022/10/30 13:05:38;;;;;;;0.30;0.30;;;22.30;99.90;;;;;;4972474;28;20048;-86